createdAt,value
2018-05-12T00:02:17.728Z,58.91
2018-05-12T00:04:43.563Z,58.91
2018-05-12T00:07:09.365Z,59.15
2018-05-12T00:09:35.165Z,59.03
2018-05-12T00:12:00.957Z,58.89
2018-05-12T00:14:26.749Z,59.13
2018-05-12T00:16:52.545Z,58.96
2018-05-12T00:19:18.380Z,59.00
2018-05-12T00:21:44.312Z,59.00
2018-05-12T00:24:10.108Z,58.96
2018-05-12T00:26:35.908Z,59.13
2018-05-12T00:29:01.733Z,59.12
2018-05-12T00:31:27.528Z,59.02
2018-05-12T00:33:54.113Z,58.94
2018-05-12T00:36:19.944Z,59.15
2018-05-12T00:38:45.752Z,59.07
2018-05-12T00:41:11.557Z,59.18
2018-05-12T00:43:37.379Z,59.11
2018-05-12T00:46:03.182Z,59.15
2018-05-12T00:48:28.976Z,59.26
2018-05-12T00:50:54.968Z,59.34
2018-05-12T00:53:20.764Z,59.44
2018-05-12T00:55:46.555Z,59.44
2018-05-12T00:58:12.391Z,59.40
2018-05-12T01:00:38.228Z,59.33
2018-05-12T01:03:04.029Z,59.39
2018-05-12T01:05:30.908Z,59.27
2018-05-12T01:07:56.726Z,59.42
2018-05-12T01:10:22.569Z,59.30
2018-05-12T01:12:48.362Z,59.58
2018-05-12T01:15:14.160Z,59.49
2018-05-12T01:17:40.024Z,59.74
2018-05-12T01:20:05.821Z,59.61
2018-05-12T01:22:31.749Z,59.57
2018-05-12T01:24:57.544Z,59.77
2018-05-12T01:27:23.383Z,59.61
2018-05-12T01:29:49.207Z,59.81
2018-05-12T01:32:15.097Z,59.73
2018-05-12T01:34:40.905Z,59.57
2018-05-12T01:37:06.826Z,59.81
2018-05-12T01:39:32.573Z,59.75
2018-05-12T01:41:58.368Z,59.65
2018-05-12T01:44:25.159Z,59.81
2018-05-12T01:46:51.832Z,60.06
2018-05-12T01:49:17.815Z,59.67
2018-05-12T01:51:43.609Z,59.92
2018-05-12T01:54:09.408Z,60.01
2018-05-12T01:56:35.200Z,59.81
2018-05-12T01:59:00.992Z,60.02
2018-05-12T02:01:26.837Z,59.99
2018-05-12T02:03:52.673Z,60.15
2018-05-12T02:06:18.473Z,59.93
2018-05-12T02:08:44.265Z,60.01
2018-05-12T02:11:10.060Z,59.97
2018-05-12T02:13:35.852Z,60.02
2018-05-12T02:16:01.685Z,59.94
2018-05-12T02:18:27.476Z,59.90
2018-05-12T02:20:53.320Z,60.11
2018-05-12T02:23:19.113Z,59.83
2018-05-12T02:25:45.932Z,60.05
2018-05-12T02:28:12.636Z,60.04
2018-05-12T02:30:38.665Z,60.24
2018-05-12T02:33:04.590Z,60.17
2018-05-12T02:35:30.444Z,59.93
2018-05-12T02:37:56.241Z,60.20
2018-05-12T02:40:22.047Z,59.95
2018-05-12T02:42:47.969Z,60.17
2018-05-12T02:45:13.925Z,60.08
2018-05-12T02:47:39.725Z,60.03
2018-05-12T02:50:06.360Z,60.00
2018-05-12T02:52:32.181Z,59.99
2018-05-12T02:54:57.977Z,60.21
2018-05-12T02:57:23.767Z,60.01
2018-05-12T02:59:49.560Z,60.07
2018-05-12T03:02:15.533Z,59.98
2018-05-12T03:04:41.333Z,59.83
2018-05-12T03:07:07.232Z,59.97
2018-05-12T03:09:33.032Z,60.01
2018-05-12T03:11:58.862Z,60.01
2018-05-12T03:14:24.664Z,60.01
2018-05-12T03:16:50.608Z,59.70
2018-05-12T03:19:16.441Z,60.06
2018-05-12T03:21:42.248Z,59.93
2018-05-12T03:24:08.044Z,59.99
2018-05-12T03:26:33.843Z,59.81
2018-05-12T03:28:59.657Z,59.93
2018-05-12T03:31:25.625Z,59.84
2018-05-12T03:33:51.420Z,59.85
2018-05-12T03:36:17.221Z,59.93
2018-05-12T03:38:43.019Z,59.76
2018-05-12T03:41:08.821Z,59.83
2018-05-12T03:43:34.629Z,59.93
2018-05-12T03:46:00.541Z,59.78
2018-05-12T03:48:26.340Z,59.85
2018-05-12T03:50:52.136Z,59.73
2018-05-12T03:53:17.941Z,59.72
2018-05-12T03:55:43.789Z,59.75
2018-05-12T03:58:09.582Z,59.55
2018-05-12T04:00:35.656Z,59.77
2018-05-12T04:03:01.503Z,59.77
2018-05-12T04:05:33.325Z,59.69
2018-05-12T04:08:05.266Z,59.75
2018-05-12T04:10:37.153Z,59.52
2018-05-12T04:13:03.200Z,59.70
2018-05-12T04:15:29.165Z,59.91
2018-05-12T04:17:55.169Z,59.69
2018-05-12T04:20:21.006Z,59.86
2018-05-12T04:22:46.993Z,59.63
2018-05-12T04:25:12.828Z,59.69
2018-05-12T04:27:38.697Z,59.93
2018-05-12T04:30:04.492Z,59.94
2018-05-12T04:32:30.505Z,59.76
2018-05-12T04:34:56.398Z,60.07
2018-05-12T04:37:22.319Z,60.06
2018-05-12T04:39:48.112Z,59.85
2018-05-12T04:42:14.057Z,59.94
2018-05-12T04:44:39.856Z,59.82
2018-05-12T04:47:05.702Z,59.77
2018-05-12T04:49:31.613Z,59.88
2018-05-12T04:51:57.364Z,60.02
2018-05-12T04:54:23.264Z,59.91
2018-05-12T04:56:50.044Z,59.90
2018-05-12T04:59:15.879Z,59.88
2018-05-12T05:01:41.671Z,59.79
2018-05-12T05:04:07.509Z,59.85
2018-05-12T05:06:34.228Z,59.78
2018-05-12T05:09:00.016Z,59.66
2018-05-12T05:11:25.849Z,59.85
2018-05-12T05:13:51.636Z,59.71
2018-05-12T05:16:17.472Z,59.75
2018-05-12T05:18:44.248Z,59.77
2018-05-12T05:21:11.065Z,59.54
2018-05-12T05:23:36.876Z,59.60
2018-05-12T05:26:02.701Z,59.76
2018-05-12T05:28:28.494Z,59.62
2018-05-12T05:30:54.289Z,59.78
2018-05-12T05:33:20.208Z,59.78
2018-05-12T05:35:46.009Z,59.72
2018-05-12T05:38:11.844Z,59.63
2018-05-12T05:40:37.636Z,59.52
2018-05-12T05:43:03.428Z,59.47
2018-05-12T05:45:30.096Z,59.71
2018-05-12T05:47:55.937Z,59.77
2018-05-12T05:50:21.828Z,59.69
2018-05-12T05:52:47.668Z,59.68
2018-05-12T05:55:13.521Z,59.64
2018-05-12T05:57:39.324Z,59.66
2018-05-12T06:00:05.144Z,59.73
2018-05-12T06:02:31.037Z,59.75
2018-05-12T06:04:56.832Z,59.79
2018-05-12T06:07:22.667Z,59.71
2018-05-12T06:09:48.469Z,59.76
2018-05-12T06:12:14.275Z,59.69
2018-05-12T06:14:40.129Z,59.95
2018-05-12T06:17:05.955Z,59.71
2018-05-12T06:19:31.789Z,59.96
2018-05-12T06:21:57.632Z,59.81
2018-05-12T06:24:23.431Z,59.71
2018-05-12T06:26:49.536Z,59.83
2018-05-12T06:29:15.336Z,59.95
2018-05-12T06:31:41.183Z,59.83
2018-05-12T06:34:06.976Z,59.74
2018-05-12T06:36:33.631Z,59.90
2018-05-12T06:39:00.350Z,59.74
2018-05-12T06:41:27.015Z,59.81
2018-05-12T06:43:53.781Z,59.75
2018-05-12T06:46:19.589Z,59.68
2018-05-12T06:48:45.395Z,59.86
2018-05-12T06:51:11.193Z,59.81
2018-05-12T06:53:36.991Z,59.79
2018-05-12T06:56:02.841Z,59.78
2018-05-12T06:58:28.672Z,59.85
2018-05-12T07:00:54.474Z,59.95
2018-05-12T07:03:20.272Z,59.86
2018-05-12T07:05:46.068Z,59.73
2018-05-12T07:08:11.864Z,59.64
2018-05-12T07:10:37.667Z,59.12
2018-05-12T07:13:04.388Z,58.48
2018-05-12T07:15:31.025Z,58.20
2018-05-12T07:17:56.945Z,57.40
2018-05-12T07:20:22.744Z,57.41
2018-05-12T07:22:49.488Z,57.40
2018-05-12T07:25:15.358Z,57.21
2018-05-12T07:27:41.209Z,57.31
2018-05-12T07:30:07.038Z,57.20
2018-05-12T07:32:32.876Z,57.31
2018-05-12T07:34:59.649Z,57.31
2018-05-12T07:37:25.455Z,57.43
2018-05-12T07:39:51.316Z,57.48
2018-05-12T07:42:17.944Z,57.43
2018-05-12T07:44:43.749Z,57.39
2018-05-12T07:47:09.549Z,57.36
2018-05-12T07:49:35.350Z,57.36
2018-05-12T07:52:01.149Z,57.27
2018-05-12T07:54:26.952Z,57.28
2018-05-12T07:56:53.908Z,57.33
2018-05-12T07:59:20.648Z,57.43
2018-05-12T08:01:49.121Z,57.26
2018-05-12T08:04:15.053Z,57.34
2018-05-12T08:06:41.009Z,57.61
2018-05-12T08:09:06.820Z,57.41
2018-05-12T08:11:32.664Z,57.39
2018-05-12T08:13:59.345Z,57.44
2018-05-12T08:16:25.197Z,57.38
2018-05-12T08:18:50.996Z,57.57
2018-05-12T08:21:16.801Z,57.72
2018-05-12T08:23:42.604Z,57.69
2018-05-12T08:26:08.542Z,57.62
2018-05-12T08:28:34.280Z,57.49
2018-05-12T08:31:00.121Z,57.81
2018-05-12T08:33:25.956Z,57.58
2018-05-12T08:35:51.756Z,57.50
2018-05-12T08:38:17.639Z,57.64
2018-05-12T08:40:43.433Z,57.49
2018-05-12T08:43:09.644Z,57.43
2018-05-12T08:45:35.502Z,57.60
2018-05-12T08:48:01.360Z,57.41
2018-05-12T08:50:28.168Z,57.39
2018-05-12T08:52:53.972Z,57.44
2018-05-12T08:55:19.797Z,57.49
2018-05-12T08:57:45.601Z,57.33
2018-05-12T09:00:11.404Z,57.49
2018-05-12T09:02:37.210Z,57.69
2018-05-12T09:05:03.035Z,57.43
2018-05-12T09:07:28.921Z,57.57
2018-05-12T09:09:54.777Z,57.84
2018-05-12T09:12:20.659Z,57.85
2018-05-12T09:14:46.457Z,57.66
2018-05-12T09:17:12.257Z,57.69
2018-05-12T09:19:38.061Z,57.53
2018-05-12T09:22:03.868Z,57.74
2018-05-12T09:24:29.660Z,57.65
2018-05-12T09:26:56.365Z,57.63
2018-05-12T09:29:22.215Z,57.49
2018-05-12T09:31:48.021Z,57.63
2018-05-12T09:34:14.371Z,57.47
2018-05-12T09:36:43.509Z,57.62
2018-05-12T09:39:12.063Z,57.84
2018-05-12T09:41:39.669Z,57.77
2018-05-12T09:44:07.439Z,57.83
2018-05-12T09:46:35.368Z,57.76
2018-05-12T09:49:04.916Z,57.77
2018-05-12T09:51:37.730Z,57.85
2018-05-12T09:54:03.979Z,58.25
2018-05-12T09:56:29.965Z,57.91
2018-05-12T09:58:55.780Z,57.94
2018-05-12T10:01:21.958Z,58.00
2018-05-12T10:03:47.861Z,57.91
2018-05-12T10:06:13.709Z,57.94
2018-05-12T10:08:40.555Z,57.78
2018-05-12T10:11:06.355Z,57.88
2018-05-12T10:13:32.228Z,57.86
2018-05-12T10:15:58.201Z,57.96
2018-05-12T10:18:24.228Z,58.03
2018-05-12T10:20:50.039Z,57.94
2018-05-12T10:23:15.969Z,58.09
2018-05-12T10:25:41.785Z,58.13
2018-05-12T10:28:07.585Z,58.04
2018-05-12T10:30:33.466Z,58.19
2018-05-12T10:32:59.275Z,57.94
2018-05-12T10:35:25.073Z,58.08
2018-05-12T10:37:50.885Z,58.02
2018-05-12T10:40:17.654Z,58.03
2018-05-12T10:42:44.488Z,57.96
2018-05-12T10:45:10.296Z,58.21
2018-05-12T10:47:36.094Z,58.23
2018-05-12T10:50:01.912Z,58.09
2018-05-12T10:52:27.711Z,58.04
2018-05-12T10:54:53.509Z,58.34
2018-05-12T10:57:19.393Z,58.11
2018-05-12T10:59:45.266Z,58.12
2018-05-12T11:02:12.124Z,58.06
2018-05-12T11:04:38.915Z,58.27
2018-05-12T11:07:04.719Z,58.28
2018-05-12T11:09:30.561Z,58.40
2018-05-12T11:11:57.205Z,58.65
2018-05-12T11:14:23.005Z,58.82
2018-05-12T11:16:48.809Z,58.46
2018-05-12T11:19:14.653Z,58.61
2018-05-12T11:21:40.588Z,58.59
2018-05-12T11:24:07.281Z,58.42
2018-05-12T11:26:33.097Z,58.58
2018-05-12T11:28:58.956Z,58.49
2018-05-12T11:31:25.716Z,58.59
2018-05-12T11:33:52.596Z,58.38
2018-05-12T11:36:18.413Z,58.46
2018-05-12T11:38:44.355Z,58.58
2018-05-12T11:41:10.105Z,58.55
2018-05-12T11:43:36.064Z,58.78
2018-05-12T11:46:02.868Z,58.56
2018-05-12T11:48:29.512Z,58.63
2018-05-12T11:50:56.385Z,58.66
2018-05-12T11:53:22.189Z,58.58
2018-05-12T11:55:47.993Z,58.66
2018-05-12T11:58:14.838Z,58.72
2018-05-12T12:00:40.589Z,58.66
2018-05-12T12:03:06.393Z,58.63
2018-05-12T12:05:32.193Z,58.82
2018-05-12T12:07:58.049Z,58.79
2018-05-12T12:10:23.926Z,58.71
2018-05-12T12:12:50.683Z,58.67
2018-05-12T12:15:16.484Z,58.86
2018-05-12T12:17:42.301Z,58.79
2018-05-12T12:20:08.116Z,58.72
2018-05-12T12:22:33.921Z,58.75
2018-05-12T12:24:59.729Z,58.72
2018-05-12T12:27:25.534Z,58.72
2018-05-12T12:29:51.385Z,58.64
2018-05-12T12:32:17.189Z,58.80
2018-05-12T12:34:43.041Z,58.83
2018-05-12T12:37:08.847Z,58.88
2018-05-12T12:39:34.745Z,58.80
2018-05-12T12:42:00.671Z,58.82
2018-05-12T12:44:26.490Z,58.87
2018-05-12T12:46:52.339Z,58.73
2018-05-12T12:49:18.141Z,58.82
2018-05-12T12:51:45.103Z,58.88
2018-05-12T12:54:10.845Z,58.92
2018-05-12T12:56:37.675Z,58.85
2018-05-12T12:59:03.484Z,58.97
2018-05-12T13:01:29.288Z,58.99
2018-05-12T13:03:55.313Z,59.08
2018-05-12T13:06:21.158Z,59.13
2018-05-12T13:08:46.957Z,59.13
2018-05-12T13:11:13.747Z,59.23
2018-05-12T13:13:40.557Z,59.12
2018-05-12T13:16:06.370Z,59.08
2018-05-12T13:18:32.234Z,59.23
2018-05-12T13:20:58.033Z,59.37
2018-05-12T13:23:23.840Z,59.23
2018-05-12T13:25:49.729Z,59.35
2018-05-12T13:28:15.571Z,59.51
2018-05-12T13:30:41.380Z,59.27
2018-05-12T13:33:07.214Z,58.79
2018-05-12T13:35:33.057Z,58.97
2018-05-12T13:37:59.675Z,59.14
2018-05-12T13:40:25.557Z,59.09
2018-05-12T13:42:51.354Z,59.36
2018-05-12T13:45:17.375Z,59.55
2018-05-12T13:47:43.176Z,59.53
2018-05-12T13:50:08.984Z,59.50
2018-05-12T13:52:34.799Z,59.47
2018-05-12T13:55:00.599Z,59.22
2018-05-12T13:57:27.309Z,59.50
2018-05-12T13:59:53.109Z,59.45
2018-05-12T14:02:18.913Z,59.51
2018-05-12T14:04:44.713Z,59.57
2018-05-12T14:07:10.557Z,59.58
2018-05-12T14:09:36.365Z,59.76
2018-05-12T14:12:02.174Z,59.80
2018-05-12T14:14:27.981Z,59.75
2018-05-12T14:16:53.785Z,59.62
2018-05-12T14:19:19.637Z,59.92
2018-05-12T14:21:45.437Z,59.70
2018-05-12T14:24:11.349Z,59.70
2018-05-12T14:26:37.205Z,59.70
2018-05-12T14:29:03.121Z,59.69
2018-05-12T14:31:28.923Z,59.66
2018-05-12T14:33:54.765Z,59.64
2018-05-12T14:36:20.566Z,59.75
2018-05-12T14:38:46.472Z,59.73
2018-05-12T14:41:12.273Z,59.84
2018-05-12T14:43:38.104Z,59.79
2018-05-12T14:46:03.919Z,59.84
2018-05-12T14:48:29.725Z,59.93
2018-05-12T14:50:56.474Z,59.84
2018-05-12T14:53:22.325Z,59.81
2018-05-12T14:55:48.121Z,60.04
2018-05-12T14:58:13.978Z,59.75
2018-05-12T15:00:40.617Z,59.72
2018-05-12T15:03:06.420Z,59.83
2018-05-12T15:05:33.165Z,59.78
2018-05-12T15:07:58.960Z,59.94
2018-05-12T15:10:24.761Z,59.91
2018-05-12T15:12:50.564Z,59.84
2018-05-12T15:15:16.371Z,60.08
2018-05-12T15:17:42.178Z,60.05
2018-05-12T15:20:08.106Z,59.99
2018-05-12T15:22:33.921Z,59.95
2018-05-12T15:24:59.723Z,59.98
2018-05-12T15:27:25.520Z,60.02
2018-05-12T15:29:51.320Z,60.10
2018-05-12T15:32:17.133Z,60.05
2018-05-12T15:34:42.937Z,60.06
2018-05-12T15:37:08.740Z,60.09
2018-05-12T15:39:34.585Z,59.93
2018-05-12T15:42:00.388Z,59.77
2018-05-12T15:44:26.194Z,59.83
2018-05-12T15:46:51.996Z,59.91
2018-05-12T15:49:17.792Z,59.87
2018-05-12T15:51:43.594Z,59.86
2018-05-12T15:54:09.396Z,59.92
2018-05-12T15:56:35.197Z,59.92
2018-05-12T15:59:00.997Z,59.82
2018-05-12T16:01:26.796Z,59.90
2018-05-12T16:03:52.605Z,59.92
2018-05-12T16:06:18.427Z,59.92
2018-05-12T16:08:44.242Z,60.00
2018-05-12T16:11:11.038Z,60.17
2018-05-12T16:13:37.881Z,60.17
2018-05-12T16:16:03.685Z,60.04
2018-05-12T16:18:30.372Z,60.25
2018-05-12T16:20:56.993Z,60.41
2018-05-12T16:23:23.781Z,60.17
2018-05-12T16:25:49.671Z,60.18
2018-05-12T16:28:15.529Z,59.91
2018-05-12T16:30:41.335Z,59.89
2018-05-12T16:33:07.203Z,59.90
2018-05-12T16:35:33.036Z,59.92
2018-05-12T16:37:58.865Z,60.04
2018-05-12T16:40:24.671Z,60.05
2018-05-12T16:42:50.474Z,59.94
2018-05-12T16:45:16.279Z,60.05
2018-05-12T16:47:42.130Z,60.03
2018-05-12T16:50:07.987Z,59.95
2018-05-12T16:52:33.813Z,60.13
2018-05-12T16:54:59.613Z,60.02
2018-05-12T16:57:25.412Z,60.01
2018-05-12T16:59:51.214Z,60.22
2018-05-12T17:02:17.849Z,60.09
2018-05-12T17:04:43.681Z,60.05
2018-05-12T17:07:09.528Z,60.14
2018-05-12T17:09:35.328Z,60.26
2018-05-12T17:12:01.132Z,60.01
2018-05-12T17:14:26.938Z,60.17
2018-05-12T17:16:52.740Z,60.08
2018-05-12T17:19:18.584Z,60.14
2018-05-12T17:21:44.386Z,60.10
2018-05-12T17:24:10.188Z,60.12
2018-05-12T17:26:36.001Z,60.09
2018-05-12T17:29:01.814Z,60.26
2018-05-12T17:31:27.616Z,60.15
2018-05-12T17:33:54.433Z,60.07
2018-05-12T17:36:21.163Z,60.12
2018-05-12T17:38:47.005Z,60.22
2018-05-12T17:41:12.924Z,60.15
2018-05-12T17:43:39.709Z,60.00
2018-05-12T17:46:05.514Z,59.66
2018-05-12T17:48:31.317Z,59.16
2018-05-12T17:50:57.126Z,58.75
2018-05-12T17:53:22.932Z,58.15
2018-05-12T17:55:48.812Z,57.86
2018-05-12T17:58:14.583Z,57.99
2018-05-12T18:00:40.384Z,57.82
2018-05-12T18:03:06.180Z,57.82
2018-05-12T18:05:32.028Z,57.88
2018-05-12T18:07:57.829Z,59.98
2018-05-12T18:10:23.888Z,58.33
2018-05-12T18:12:49.707Z,58.26
2018-05-12T18:15:16.721Z,58.06
2018-05-12T18:17:43.985Z,58.12
2018-05-12T18:20:09.784Z,58.03
2018-05-12T18:22:35.724Z,59.41
2018-05-12T18:25:02.470Z,58.35
2018-05-12T18:27:28.398Z,58.57
2018-05-12T18:29:54.200Z,58.34
2018-05-12T18:32:20.052Z,58.21
2018-05-12T18:34:45.928Z,58.27
2018-05-12T18:37:11.753Z,58.33
2018-05-12T18:39:37.617Z,58.25
2018-05-12T18:42:03.420Z,58.35
2018-05-12T18:44:29.254Z,58.26
2018-05-12T18:46:55.057Z,58.14
2018-05-12T18:49:20.857Z,58.29
2018-05-12T18:51:47.577Z,58.26
2018-05-12T18:54:13.478Z,58.28
2018-05-12T18:56:39.445Z,58.11
2018-05-12T18:59:05.217Z,58.11
2018-05-12T19:01:31.028Z,58.30
2018-05-12T19:03:56.841Z,58.25
2018-05-12T19:06:22.640Z,58.31
2018-05-12T19:08:48.444Z,58.34
2018-05-12T19:11:14.255Z,58.23
2018-05-12T19:13:40.201Z,58.30
2018-05-12T19:16:06.005Z,58.07
2018-05-12T19:18:31.965Z,58.13
2018-05-12T19:20:57.765Z,58.13
2018-05-12T19:23:23.564Z,58.25
2018-05-12T19:25:49.416Z,58.28
2018-05-12T19:28:15.220Z,58.41
2018-05-12T19:30:41.910Z,58.19
2018-05-12T19:33:07.814Z,58.21
2018-05-12T19:35:33.690Z,58.46
2018-05-12T19:37:59.638Z,58.29
2018-05-12T19:40:26.321Z,58.41
2018-05-12T19:42:52.172Z,58.10
2018-05-12T19:45:17.976Z,58.26
2018-05-12T19:47:43.821Z,58.14
2018-05-12T19:50:09.742Z,58.31
2018-05-12T19:52:36.497Z,58.38
2018-05-12T19:55:02.349Z,58.15
2018-05-12T19:57:29.248Z,58.08
2018-05-12T19:59:55.101Z,58.23
2018-05-12T20:02:21.020Z,58.45
2018-05-12T20:04:46.821Z,58.32
2018-05-12T20:07:12.660Z,58.38
2018-05-12T20:09:38.471Z,58.36
2018-05-12T20:12:05.265Z,58.27
2018-05-12T20:14:32.137Z,58.28
2018-05-12T20:16:58.073Z,58.27
2018-05-12T20:19:24.142Z,58.45
2018-05-12T20:21:50.896Z,58.57
2018-05-12T20:24:17.644Z,58.50
2018-05-12T20:26:43.457Z,58.46
2018-05-12T20:29:09.340Z,58.57
2018-05-12T20:31:35.143Z,58.50
2018-05-12T20:34:01.533Z,58.61
2018-05-12T20:36:28.346Z,58.58
2018-05-12T20:38:54.152Z,58.44
2018-05-12T20:41:20.894Z,58.46
2018-05-12T20:43:46.699Z,58.50
2018-05-12T20:46:12.501Z,58.48
2018-05-12T20:48:38.304Z,58.43
2018-05-12T20:51:04.111Z,58.54
2018-05-12T20:53:29.969Z,58.43
2018-05-12T20:55:55.772Z,58.63
2018-05-12T20:58:21.633Z,58.65
2018-05-12T21:00:47.455Z,58.55
2018-05-12T21:03:14.129Z,58.54
2018-05-12T21:05:40.876Z,58.63
2018-05-12T21:08:06.686Z,58.63
2018-05-12T21:10:32.536Z,58.51
2018-05-12T21:12:58.846Z,58.42
2018-05-12T21:15:24.644Z,58.62
2018-05-12T21:17:51.994Z,58.41
2018-05-12T21:20:17.800Z,58.57
2018-05-12T21:22:43.629Z,58.69
2018-05-12T21:25:09.473Z,58.57
2018-05-12T21:27:35.287Z,58.57
2018-05-12T21:30:01.098Z,58.59
2018-05-12T21:32:26.896Z,58.77
2018-05-12T21:34:52.745Z,58.76
2018-05-12T21:37:18.546Z,58.69
2018-05-12T21:39:44.377Z,58.73
2018-05-12T21:42:10.181Z,58.68
2018-05-12T21:44:36.104Z,58.71
2018-05-12T21:47:01.909Z,58.89
2018-05-12T21:49:27.749Z,58.74
2018-05-12T21:51:53.583Z,58.71
2018-05-12T21:54:19.381Z,58.75
2018-05-12T21:56:45.312Z,58.87
2018-05-12T21:59:11.115Z,58.81
2018-05-12T22:01:36.920Z,58.83
2018-05-12T22:04:03.649Z,58.88
2018-05-12T22:06:29.455Z,58.97
2018-05-12T22:08:55.257Z,59.07
2018-05-12T22:11:21.061Z,58.82
2018-05-12T22:13:47.900Z,58.87
2018-05-12T22:16:13.697Z,58.91
2018-05-12T22:18:39.555Z,58.99
2018-05-12T22:21:05.337Z,59.12
2018-05-12T22:23:31.134Z,59.18
2018-05-12T22:25:56.940Z,58.99
2018-05-12T22:28:22.740Z,59.17
2018-05-12T22:30:48.535Z,58.93
2018-05-12T22:33:14.333Z,59.09
2018-05-12T22:35:41.089Z,58.97
2018-05-12T22:38:06.934Z,59.01
2018-05-12T22:40:32.736Z,58.97
2018-05-12T22:42:58.538Z,59.06
2018-05-12T22:45:25.160Z,58.97
2018-05-12T22:47:50.955Z,59.05
2018-05-12T22:50:16.787Z,59.04
2018-05-12T22:52:43.553Z,58.96
2018-05-12T22:55:09.393Z,58.98
2018-05-12T22:57:36.173Z,59.09
2018-05-12T23:00:02.022Z,59.02
2018-05-12T23:02:27.821Z,59.13
2018-05-12T23:04:53.664Z,59.16
2018-05-12T23:07:20.479Z,59.01
2018-05-12T23:09:47.314Z,59.20
2018-05-12T23:12:13.157Z,59.23
2018-05-12T23:14:38.957Z,59.24
2018-05-12T23:17:05.683Z,59.08
2018-05-12T23:19:31.571Z,59.26
2018-05-12T23:21:58.372Z,59.28
2018-05-12T23:24:24.169Z,59.21
2018-05-12T23:26:50.010Z,59.11
2018-05-12T23:29:15.808Z,59.13
2018-05-12T23:31:42.452Z,59.09
2018-05-12T23:34:09.244Z,59.21
2018-05-12T23:36:35.126Z,59.15
2018-05-12T23:39:00.925Z,58.95
2018-05-12T23:41:26.776Z,58.98
2018-05-12T23:43:53.573Z,59.02
2018-05-12T23:46:20.301Z,59.15
2018-05-12T23:48:46.934Z,59.17
2018-05-12T23:51:12.767Z,59.28
2018-05-12T23:53:38.621Z,59.24
2018-05-12T23:56:04.416Z,59.19
2018-05-12T23:58:31.134Z,59.24
